createdAt,value
2023-03-17T00:00:59.300Z,13.30
2023-03-17T00:07:14.997Z,14.10
2023-03-17T00:09:47.656Z,13.80
2023-03-17T00:12:27.173Z,13.60
2023-03-17T00:15:16.968Z,12.90
2023-03-17T00:17:57.934Z,13.40
2023-03-17T00:20:34.294Z,12.80
2023-03-17T00:23:04.164Z,15.70
2023-03-17T00:25:42.905Z,16.70
2023-03-17T00:28:19.094Z,14.20
2023-03-17T00:30:56.033Z,14.00
2023-03-17T00:33:28.541Z,14.40
2023-03-17T00:35:59.624Z,17.10
2023-03-17T00:38:31.091Z,16.30
2023-03-17T00:41:03.162Z,14.00
2023-03-17T00:43:33.774Z,13.60
2023-03-17T00:46:10.631Z,15.40
2023-03-17T00:48:41.012Z,15.40
2023-03-17T00:51:10.190Z,15.80
2023-03-17T00:53:40.153Z,14.10
2023-03-17T00:56:16.455Z,13.80
2023-03-17T00:58:48.460Z,13.80
2023-03-17T01:01:20.782Z,14.20
2023-03-17T01:03:56.946Z,14.40
2023-03-17T01:06:26.890Z,15.70
2023-03-17T01:09:06.441Z,13.50
2023-03-17T01:11:41.640Z,14.50
2023-03-17T01:14:11.658Z,15.50
2023-03-17T01:16:41.381Z,14.10
2023-03-17T01:19:15.096Z,13.00
2023-03-17T01:21:46.414Z,13.30
2023-03-17T01:24:17.453Z,15.00
2023-03-17T01:26:50.372Z,16.80
2023-03-17T01:29:19.759Z,14.40
2023-03-17T01:31:50.130Z,11.70
2023-03-17T01:34:22.075Z,14.30
2023-03-17T01:36:52.911Z,15.10
2023-03-17T01:39:39.368Z,13.50
2023-03-17T01:42:09.890Z,13.80
2023-03-17T01:45:03.427Z,13.20
2023-03-17T01:47:33.272Z,13.70
2023-03-17T01:50:11.514Z,12.70
2023-03-17T01:52:41.048Z,14.90
2023-03-17T01:55:14.693Z,14.10
2023-03-17T01:57:50.121Z,13.90
2023-03-17T02:00:24.496Z,13.50
2023-03-17T02:02:57.819Z,13.20
2023-03-17T02:05:30.692Z,13.60
2023-03-17T02:08:00.201Z,15.10
2023-03-17T02:10:31.980Z,14.60
2023-03-17T02:13:05.083Z,11.90
2023-03-17T02:15:39.877Z,13.10
2023-03-17T02:18:11.874Z,12.80
2023-03-17T02:21:18.203Z,13.90
2023-03-17T02:23:49.795Z,12.70
2023-03-17T02:26:34.109Z,10.50
2023-03-17T02:29:23.393Z,13.50
2023-03-17T02:32:11.255Z,14.30
2023-03-17T02:34:41.982Z,14.90
2023-03-17T02:37:11.723Z,13.30
2023-03-17T02:39:43.054Z,13.30
2023-03-17T02:42:13.926Z,13.30
2023-03-17T02:44:45.099Z,15.00
2023-03-17T02:47:15.498Z,14.50
2023-03-17T02:49:46.053Z,13.70
2023-03-17T02:52:16.208Z,12.90
2023-03-17T02:54:47.683Z,12.10
2023-03-17T02:57:18.326Z,13.20
2023-03-17T02:59:48.251Z,14.10
2023-03-17T03:02:20.293Z,12.10
2023-03-17T03:04:50.639Z,12.10
2023-03-17T03:07:20.330Z,12.60
2023-03-17T03:09:49.662Z,13.80
2023-03-17T03:12:19.025Z,11.80
2023-03-17T03:14:54.034Z,12.80
2023-03-17T03:17:33.782Z,13.10
2023-03-17T03:20:03.788Z,12.70
2023-03-17T03:22:33.077Z,12.00
2023-03-17T03:27:32.094Z,12.80
2023-03-17T03:30:04.710Z,10.10
2023-03-17T03:32:34.045Z,11.60
2023-03-17T03:35:03.780Z,12.10
2023-03-17T03:37:33.160Z,10.60
2023-03-17T03:40:03.676Z,11.10
2023-03-17T03:42:34.102Z,12.80
2023-03-17T03:45:05.165Z,12.20
2023-03-17T03:48:21.673Z,10.50
2023-03-17T03:50:34.492Z,12.70
2023-03-17T03:53:04.205Z,13.30
2023-03-17T03:55:34.324Z,11.50
2023-03-17T03:58:07.352Z,13.80
2023-03-17T04:00:36.749Z,12.30
2023-03-17T04:03:08.083Z,11.50
2023-03-17T04:05:37.680Z,12.50
2023-03-17T04:10:43.449Z,11.40
2023-03-17T04:13:29.802Z,11.70
2023-03-17T04:16:06.551Z,12.50
2023-03-17T04:18:40.673Z,12.50
2023-03-17T04:21:18.516Z,12.40
2023-03-17T04:23:51.014Z,12.00
2023-03-17T04:26:22.555Z,13.80
2023-03-17T04:28:59.434Z,11.90
2023-03-17T04:31:34.113Z,14.30
2023-03-17T04:34:04.225Z,11.40
2023-03-17T04:36:36.728Z,10.90
2023-03-17T04:39:06.855Z,13.70
2023-03-17T04:41:40.487Z,13.30
2023-03-17T04:44:10.750Z,13.80
2023-03-17T04:46:41.740Z,13.70
2023-03-17T04:49:11.636Z,12.70
2023-03-17T04:51:41.544Z,12.50
2023-03-17T04:54:11.637Z,13.80
2023-03-17T04:56:40.732Z,14.90
2023-03-17T04:59:10.968Z,13.80
2023-03-17T05:13:14.226Z,14.00
2023-03-17T05:15:53.714Z,15.30
2023-03-17T05:18:25.137Z,14.20
2023-03-17T05:20:55.207Z,15.10
2023-03-17T05:23:29.194Z,14.40
2023-03-17T05:25:58.887Z,13.70
2023-03-17T05:28:28.675Z,13.20
2023-03-17T05:31:05.226Z,15.10
2023-03-17T05:33:36.927Z,13.70
2023-03-17T05:36:08.166Z,14.80
2023-03-17T05:38:40.106Z,13.10
2023-03-17T05:41:11.810Z,13.20
2023-03-17T05:43:43.023Z,12.50
2023-03-17T05:46:13.237Z,14.20
2023-03-17T05:48:48.018Z,16.00
2023-03-17T05:51:20.096Z,14.20
2023-03-17T05:53:58.688Z,14.30
2023-03-17T05:56:33.257Z,14.80
2023-03-17T05:59:09.731Z,16.60
2023-03-17T06:01:39.469Z,17.80
2023-03-17T06:04:15.237Z,19.40
2023-03-17T06:06:54.856Z,18.10
2023-03-17T06:09:27.892Z,18.10
2023-03-17T06:11:59.229Z,15.20
2023-03-17T06:14:29.768Z,14.80
2023-03-17T06:16:59.034Z,16.10
2023-03-17T06:19:33.412Z,15.90
2023-03-17T06:22:11.094Z,15.90
2023-03-17T06:24:41.055Z,15.80
2023-03-17T06:27:16.228Z,14.60
2023-03-17T06:29:45.762Z,17.70
2023-03-17T06:32:20.751Z,16.30
2023-03-17T06:34:51.311Z,14.10
2023-03-17T06:37:27.280Z,16.80
2023-03-17T06:39:57.956Z,16.00
2023-03-17T06:42:27.465Z,16.50
2023-03-17T06:44:57.597Z,14.20
2023-03-17T06:47:28.013Z,13.80
2023-03-17T06:49:58.741Z,13.10
2023-03-17T06:52:28.602Z,13.80
2023-03-17T06:54:58.977Z,15.60
2023-03-17T06:57:41.963Z,13.70
2023-03-17T07:00:21.194Z,6.90
2023-03-17T07:02:56.966Z,6.50
2023-03-17T07:05:34.231Z,6.20
2023-03-17T07:08:28.871Z,4.80
2023-03-17T07:11:35.129Z,5.90
2023-03-17T07:14:05.866Z,7.40
2023-03-17T07:16:41.938Z,6.30
2023-03-17T07:19:13.768Z,6.10
2023-03-17T07:21:44.885Z,5.80
2023-03-17T07:24:19.475Z,7.80
2023-03-17T07:26:56.639Z,9.10
2023-03-17T07:29:38.159Z,7.10
2023-03-17T07:32:17.407Z,7.90
2023-03-17T07:34:52.217Z,7.30
2023-03-17T07:37:28.192Z,8.50
2023-03-17T07:40:15.826Z,9.30
2023-03-17T07:45:21.949Z,7.10
2023-03-17T07:47:53.348Z,7.90
2023-03-17T07:50:24.472Z,6.60
2023-03-17T07:52:54.676Z,7.10
2023-03-17T07:55:24.751Z,8.90
2023-03-17T07:57:59.742Z,11.80
2023-03-17T08:00:30.607Z,8.80
2023-03-17T08:03:10.386Z,8.00
2023-03-17T08:05:41.332Z,12.40
2023-03-17T08:11:20.505Z,7.80
2023-03-17T08:13:52.682Z,8.60
2023-03-17T08:16:22.759Z,10.40
2023-03-17T08:18:54.206Z,10.40
2023-03-17T08:21:33.951Z,9.00
2023-03-17T08:24:09.363Z,9.80
2023-03-17T08:26:46.570Z,10.20
2023-03-17T08:29:18.137Z,8.60
2023-03-17T08:31:48.383Z,7.80
2023-03-17T08:34:21.214Z,10.00
2023-03-17T08:37:06.155Z,10.70
2023-03-17T08:39:40.609Z,8.00
2023-03-17T08:42:11.467Z,11.10
2023-03-17T08:44:51.811Z,9.50
2023-03-17T08:47:26.837Z,10.20
2023-03-17T08:50:16.177Z,8.30
2023-03-17T08:52:58.793Z,7.70
2023-03-17T08:55:42.214Z,9.60
2023-03-17T08:58:21.730Z,8.90
2023-03-17T09:00:53.348Z,8.90
2023-03-17T09:03:29.487Z,8.60
2023-03-17T09:06:03.516Z,9.10
2023-03-17T09:08:42.447Z,9.60
2023-03-17T09:11:22.699Z,8.90
2023-03-17T09:13:57.941Z,8.60
2023-03-17T09:16:33.539Z,9.40
2023-03-17T09:19:06.483Z,10.90
2023-03-17T09:21:35.865Z,11.70
2023-03-17T09:24:14.298Z,9.30
2023-03-17T09:26:47.536Z,10.20
2023-03-17T09:29:37.981Z,10.60
2023-03-17T09:32:16.826Z,8.90
2023-03-17T09:34:53.274Z,7.90
2023-03-17T09:37:25.037Z,8.50
2023-03-17T09:39:58.593Z,9.00
2023-03-17T09:42:42.389Z,9.40
2023-03-17T09:45:21.816Z,8.30
2023-03-17T09:48:06.327Z,7.40
2023-03-17T09:50:44.863Z,9.80
2023-03-17T09:53:33.623Z,8.20
2023-03-17T09:56:12.160Z,9.10
2023-03-17T09:58:53.516Z,9.80
2023-03-17T10:01:25.195Z,8.00
2023-03-17T10:03:56.437Z,7.70
2023-03-17T10:06:37.003Z,7.20
2023-03-17T10:12:05.596Z,7.10
2023-03-17T10:14:54.465Z,7.90
2023-03-17T10:17:28.398Z,5.90
2023-03-17T10:20:08.325Z,8.10
2023-03-17T10:22:48.482Z,9.20
2023-03-17T10:25:25.132Z,7.20
2023-03-17T10:27:59.925Z,6.70
2023-03-17T10:30:34.080Z,6.30
2023-03-17T10:33:07.430Z,9.80
2023-03-17T10:35:44.729Z,6.50
2023-03-17T10:38:18.519Z,10.50
2023-03-17T10:40:57.025Z,6.70
2023-03-17T10:43:35.710Z,7.10
2023-03-17T10:46:21.127Z,7.30
2023-03-17T10:48:59.850Z,6.90
2023-03-17T10:51:36.687Z,8.00
2023-03-17T10:54:23.179Z,8.70
2023-03-17T10:57:01.449Z,10.90
2023-03-17T10:59:37.672Z,6.80
2023-03-17T11:06:04.006Z,6.20
2023-03-17T11:08:41.035Z,6.80
2023-03-17T11:11:28.210Z,6.40
2023-03-17T11:14:05.498Z,5.50
2023-03-17T11:16:44.792Z,6.80
2023-03-17T11:19:18.309Z,6.50
2023-03-17T11:21:56.485Z,6.90
2023-03-17T11:24:35.278Z,7.00
2023-03-17T11:27:20.408Z,5.90
2023-03-17T11:30:03.168Z,5.60
2023-03-17T11:32:43.321Z,6.40
2023-03-17T11:35:44.606Z,6.50
2023-03-17T11:38:22.154Z,7.10
2023-03-17T11:41:20.771Z,5.40
2023-03-17T11:44:05.827Z,5.10
2023-03-17T11:46:45.296Z,4.70
2023-03-17T11:49:21.781Z,5.50
2023-03-17T11:52:02.622Z,7.00
2023-03-17T11:54:45.469Z,8.10
2023-03-17T11:57:29.555Z,11.20
2023-03-17T12:00:09.604Z,10.20
2023-03-17T12:02:54.150Z,11.10
2023-03-17T12:05:29.487Z,9.50
2023-03-17T12:08:13.690Z,10.10
2023-03-17T12:10:49.523Z,11.20
2023-03-17T12:13:28.981Z,10.40
2023-03-17T12:16:15.310Z,9.10
2023-03-17T12:18:55.217Z,10.10
2023-03-17T12:21:32.454Z,8.20
2023-03-17T12:24:06.893Z,14.70
2023-03-17T12:26:50.116Z,13.60
2023-03-17T12:29:28.260Z,8.60
2023-03-17T12:32:06.678Z,9.60
2023-03-17T12:34:52.012Z,9.30
2023-03-17T12:37:31.166Z,9.00
2023-03-17T12:40:09.588Z,10.00
2023-03-17T12:42:53.387Z,9.30
2023-03-17T12:45:55.331Z,10.50
2023-03-17T12:48:44.824Z,9.40
2023-03-17T12:51:49.465Z,9.80
2023-03-17T12:54:25.654Z,11.50
2023-03-17T12:57:11.266Z,11.90
2023-03-17T12:59:45.507Z,11.20
2023-03-17T13:02:31.402Z,10.00
2023-03-17T13:05:29.741Z,9.30
2023-03-17T13:08:15.365Z,10.30
2023-03-17T13:10:48.251Z,10.50
2023-03-17T13:13:48.271Z,11.70
2023-03-17T13:16:32.742Z,11.30
2023-03-17T13:19:20.720Z,12.70
2023-03-17T13:22:14.807Z,8.80
2023-03-17T13:24:47.474Z,9.30
2023-03-17T13:27:46.129Z,9.90
2023-03-17T13:30:44.105Z,10.30
2023-03-17T13:36:16.042Z,10.50
2023-03-17T13:39:20.069Z,12.00
2023-03-17T13:42:18.933Z,9.80
2023-03-17T13:45:15.813Z,13.60
2023-03-17T13:47:46.671Z,8.90
2023-03-17T13:50:23.188Z,8.70
2023-03-17T13:53:02.346Z,9.50
2023-03-17T13:55:39.717Z,9.60
2023-03-17T13:58:35.597Z,8.40
2023-03-17T14:01:13.857Z,10.10
2023-03-17T14:03:53.376Z,7.40
2023-03-17T14:06:31.330Z,10.00
2023-03-17T14:09:13.648Z,8.30
2023-03-17T14:12:05.878Z,7.20
2023-03-17T14:14:46.644Z,7.10
2023-03-17T14:17:20.429Z,6.60
2023-03-17T14:20:04.689Z,6.70
2023-03-17T14:22:39.805Z,5.50
2023-03-17T14:25:18.566Z,7.30
2023-03-17T14:28:03.132Z,6.80
2023-03-17T14:30:40.364Z,7.00
2023-03-17T14:33:21.667Z,5.90
2023-03-17T14:35:53.740Z,7.30
2023-03-17T14:38:26.205Z,7.70
2023-03-17T14:41:04.311Z,6.70
2023-03-17T14:43:36.986Z,5.30
2023-03-17T14:46:13.424Z,8.30
2023-03-17T14:48:50.540Z,7.40
2023-03-17T14:51:28.578Z,6.90
2023-03-17T14:54:02.262Z,5.70
2023-03-17T14:56:35.644Z,8.60
2023-03-17T14:59:18.049Z,6.90
2023-03-17T15:01:48.886Z,6.00
2023-03-17T15:04:24.160Z,6.30
2023-03-17T15:06:55.297Z,8.30
2023-03-17T15:09:44.224Z,8.80
2023-03-17T15:12:22.242Z,8.00
2023-03-17T15:14:57.839Z,8.00
2023-03-17T15:17:31.456Z,8.00
2023-03-17T15:20:13.932Z,6.50
2023-03-17T15:22:48.248Z,6.70
2023-03-17T15:25:24.434Z,7.80
2023-03-17T15:28:00.732Z,7.60
2023-03-17T15:33:23.091Z,7.60
2023-03-17T15:36:32.800Z,9.70
2023-03-17T15:39:09.211Z,8.70
2023-03-17T15:41:43.011Z,8.10
2023-03-17T15:44:13.084Z,8.20
2023-03-17T16:05:23.863Z,9.60
2023-03-17T16:07:55.969Z,9.40
2023-03-17T16:10:30.887Z,8.60
2023-03-17T16:13:04.140Z,9.20
2023-03-17T16:15:41.843Z,9.60
2023-03-17T16:18:18.252Z,10.70
2023-03-17T16:20:50.415Z,10.50
2023-03-17T16:23:35.332Z,9.30
2023-03-17T16:26:15.401Z,11.30
2023-03-17T16:28:48.491Z,11.70
2023-03-17T16:31:21.213Z,13.20
2023-03-17T16:33:52.972Z,12.50
2023-03-17T16:36:23.903Z,13.80
2023-03-17T16:38:55.638Z,12.70
2023-03-17T16:41:28.011Z,13.90
2023-03-17T16:44:05.187Z,12.90
2023-03-17T16:46:37.637Z,11.80
2023-03-17T16:49:07.930Z,12.10
2023-03-17T16:51:37.478Z,13.30
2023-03-17T16:54:07.819Z,13.80
2023-03-17T16:56:37.779Z,12.40
2023-03-17T16:59:10.801Z,13.40
2023-03-17T17:01:41.394Z,13.00
2023-03-17T17:04:13.323Z,12.30
2023-03-17T17:06:44.923Z,11.30
2023-03-17T17:09:15.341Z,10.80
2023-03-17T17:11:46.478Z,11.60
2023-03-17T17:14:31.998Z,12.40
2023-03-17T17:17:15.615Z,13.40
2023-03-17T17:20:03.621Z,11.70
2023-03-17T17:22:32.819Z,13.00
2023-03-17T17:27:32.501Z,11.90
2023-03-17T17:30:03.193Z,11.10
2023-03-17T17:32:39.482Z,11.60
2023-03-17T17:35:13.420Z,11.20
2023-03-17T17:37:44.731Z,11.70
2023-03-17T17:40:27.587Z,12.40
2023-03-17T17:43:01.426Z,14.10
2023-03-17T17:45:38.095Z,11.30
2023-03-17T17:48:12.736Z,11.90
2023-03-17T17:51:16.496Z,11.50
2023-03-17T17:53:49.053Z,11.50
2023-03-17T17:56:34.995Z,11.40
2023-03-17T17:59:04.118Z,16.00
2023-03-17T18:01:36.524Z,12.70
2023-03-17T18:04:15.942Z,14.40
2023-03-17T18:06:46.197Z,11.80
2023-03-17T18:09:17.894Z,12.80
2023-03-17T18:11:47.370Z,13.90
2023-03-17T18:14:22.014Z,12.70
2023-03-17T18:16:52.305Z,16.10
2023-03-17T18:19:24.098Z,14.10
2023-03-17T18:21:56.781Z,13.80
2023-03-17T18:24:31.941Z,15.50
2023-03-17T18:27:03.368Z,15.20
2023-03-17T18:29:32.889Z,15.20
2023-03-17T18:32:02.597Z,14.20
2023-03-17T18:34:44.786Z,15.60
2023-03-17T18:37:46.747Z,20.60
2023-03-17T18:40:19.887Z,18.10
2023-03-17T18:42:56.517Z,14.60
2023-03-17T18:45:30.345Z,14.40
2023-03-17T18:48:19.404Z,15.90
2023-03-17T18:50:55.296Z,13.10
2023-03-17T18:53:26.514Z,15.20
2023-03-17T18:56:14.820Z,13.70
2023-03-17T18:59:19.642Z,13.20
2023-03-17T19:04:45.590Z,13.90
2023-03-17T19:07:17.753Z,13.00
2023-03-17T19:09:58.569Z,14.10
2023-03-17T19:12:46.436Z,13.30
2023-03-17T19:15:29.956Z,15.90
2023-03-17T19:18:00.125Z,15.80
2023-03-17T19:20:33.396Z,16.20
2023-03-17T19:23:38.841Z,16.70
2023-03-17T19:26:09.724Z,16.00
2023-03-17T19:28:39.593Z,14.90
2023-03-17T19:31:13.098Z,15.10
2023-03-17T19:33:44.073Z,13.80
2023-03-17T19:36:18.410Z,16.30
2023-03-17T19:39:04.350Z,15.60
2023-03-17T19:41:43.791Z,12.90
2023-03-17T19:44:23.685Z,16.80
2023-03-17T19:47:04.537Z,14.90
2023-03-17T19:49:37.495Z,15.40
2023-03-17T19:52:10.991Z,14.90
2023-03-17T19:54:47.761Z,14.40
2023-03-17T19:57:20.237Z,13.80
2023-03-17T19:59:49.542Z,9.40
2023-03-17T20:02:22.845Z,10.60
2023-03-17T20:04:53.423Z,8.80
2023-03-17T20:07:29.111Z,8.70
2023-03-17T20:10:02.368Z,8.50
2023-03-17T20:12:33.801Z,9.10
2023-03-17T20:15:22.509Z,6.50
2023-03-17T20:17:58.876Z,6.10
2023-03-17T20:20:37.661Z,6.70
2023-03-17T20:23:14.707Z,7.10
2023-03-17T20:25:46.604Z,6.30
2023-03-17T20:28:23.591Z,7.70
2023-03-17T20:31:05.342Z,6.90
2023-03-17T20:33:56.068Z,5.60
2023-03-17T20:36:44.512Z,7.60
2023-03-17T20:39:19.456Z,6.00
2023-03-17T20:42:01.144Z,6.30
2023-03-17T20:45:10.942Z,5.40
2023-03-17T20:47:45.758Z,8.00
2023-03-17T20:50:15.934Z,7.30
2023-03-17T20:52:45.988Z,5.90
2023-03-17T21:03:27.629Z,6.90
2023-03-17T21:06:01.920Z,6.30
2023-03-17T21:08:35.220Z,5.80
2023-03-17T21:11:05.979Z,7.20
2023-03-17T21:13:38.460Z,6.00
2023-03-17T21:16:12.616Z,5.70
2023-03-17T21:19:12.477Z,5.50
2023-03-17T21:21:44.036Z,4.90
2023-03-17T21:24:33.097Z,7.10
2023-03-17T21:28:05.239Z,7.00
2023-03-17T21:30:36.551Z,5.80
2023-03-17T21:33:06.520Z,7.80
2023-03-17T21:35:37.500Z,6.90
2023-03-17T21:38:09.436Z,7.60
2023-03-17T21:41:42.733Z,6.00
2023-03-17T21:44:20.436Z,5.50
2023-03-17T21:46:50.465Z,7.20
2023-03-17T21:49:24.928Z,7.30
2023-03-17T21:51:56.673Z,4.90
2023-03-17T21:54:35.101Z,5.20
2023-03-17T21:57:06.267Z,6.30
2023-03-17T21:59:35.765Z,7.00
2023-03-17T22:02:06.366Z,6.90
2023-03-17T22:04:35.921Z,4.70
2023-03-17T22:07:05.465Z,6.20
2023-03-17T22:09:36.121Z,5.10
2023-03-17T22:12:08.887Z,5.30
2023-03-17T22:14:39.269Z,5.10
2023-03-17T22:17:09.812Z,5.70
2023-03-17T22:19:41.778Z,5.80
2023-03-17T22:22:14.901Z,4.50
2023-03-17T22:24:51.263Z,4.50
2023-03-17T22:27:21.047Z,6.40
2023-03-17T22:29:52.267Z,4.70
2023-03-17T22:32:21.851Z,6.90
2023-03-17T22:34:56.243Z,4.70
2023-03-17T22:37:27.528Z,5.30
2023-03-17T22:40:01.863Z,6.90
2023-03-17T22:42:32.858Z,5.00
2023-03-17T22:45:05.810Z,5.10
2023-03-17T22:47:36.530Z,5.70
2023-03-17T22:50:08.244Z,5.40
2023-03-17T22:52:38.568Z,4.40
2023-03-17T22:55:10.067Z,4.80
2023-03-17T22:57:40.345Z,5.50
2023-03-17T23:00:16.944Z,4.70
2023-03-17T23:02:47.161Z,5.50
2023-03-17T23:05:16.458Z,3.80
2023-03-17T23:07:53.048Z,7.20
2023-03-17T23:10:25.660Z,5.10
2023-03-17T23:12:55.131Z,8.10
2023-03-17T23:15:25.923Z,4.70
2023-03-17T23:17:56.257Z,7.00
2023-03-17T23:20:26.292Z,5.50
2023-03-17T23:22:55.646Z,4.90
2023-03-17T23:25:25.317Z,4.50
2023-03-17T23:27:56.064Z,4.90
2023-03-17T23:30:28.786Z,5.00
2023-03-17T23:33:01.435Z,4.00
2023-03-17T23:35:33.964Z,3.60
2023-03-17T23:38:07.271Z,5.70
2023-03-17T23:40:37.979Z,4.50
2023-03-17T23:43:08.139Z,5.10
2023-03-17T23:45:38.878Z,3.90
2023-03-17T23:48:09.978Z,4.30
2023-03-17T23:50:42.143Z,4.70
2023-03-17T23:53:15.602Z,3.70
2023-03-17T23:55:46.333Z,5.10
2023-03-17T23:58:15.899Z,4.20
